sensor_id;sensor_type;location;lat;lon;timestamp;temperature;humidity
77803;DHT22;66993;48.256;16.422;2023-05-29T00:00:16;14.5;76.0
77803;DHT22;66993;48.256;16.422;2023-05-29T00:05:16;14.6;76.0
77803;DHT22;66993;48.256;16.422;2023-05-29T00:10:16;14.5;75.0
77803;DHT22;66993;48.256;16.422;2023-05-29T00:15:16;14.6;75.0
77803;DHT22;66993;48.256;16.422;2023-05-29T00:20:16;14.5;75.0
77803;DHT22;66993;48.256;16.422;2023-05-29T00:25:16;14.1;75.0
77803;DHT22;66993;48.256;16.422;2023-05-29T00:30:16;14.1;74.0
77803;DHT22;66993;48.256;16.422;2023-05-29T00:35:16;14.1;74.0
77803;DHT22;66993;48.256;16.422;2023-05-29T00:40:16;14.2;74.0
77803;DHT22;66993;48.256;16.422;2023-05-29T00:45:16;14.2;74.0
77803;DHT22;66993;48.256;16.422;2023-05-29T00:50:16;14.5;74.0
77803;DHT22;66993;48.256;16.422;2023-05-29T00:55:16;14.0;74.0
77803;DHT22;66993;48.256;16.422;2023-05-29T01:00:16;14.3;74.0
77803;DHT22;66993;48.256;16.422;2023-05-29T01:05:16;14.4;74.0
77803;DHT22;66993;48.256;16.422;2023-05-29T01:10:16;14.3;74.0
77803;DHT22;66993;48.256;16.422;2023-05-29T01:15:18;14.1;74.0
77803;DHT22;66993;48.256;16.422;2023-05-29T01:20:18;14.0;74.0
77803;DHT22;66993;48.256;16.422;2023-05-29T01:25:17;13.8;74.0
77803;DHT22;66993;48.256;16.422;2023-05-29T01:30:16;13.8;74.0
77803;DHT22;66993;48.256;16.422;2023-05-29T01:35:16;13.5;74.0
77803;DHT22;66993;48.256;16.422;2023-05-29T01:40:16;13.6;74.0
77803;DHT22;66993;48.256;16.422;2023-05-29T01:45:16;13.5;74.0
77803;DHT22;66993;48.256;16.422;2023-05-29T01:50:17;13.4;74.0
77803;DHT22;66993;48.256;16.422;2023-05-29T01:55:16;13.4;75.0
77803;DHT22;66993;48.256;16.422;2023-05-29T02:00:17;13.4;75.0
77803;DHT22;66993;48.256;16.422;2023-05-29T02:05:16;13.2;75.0
77803;DHT22;66993;48.256;16.422;2023-05-29T02:10:16;13.3;75.0
77803;DHT22;66993;48.256;16.422;2023-05-29T02:15:16;13.2;75.0
77803;DHT22;66993;48.256;16.422;2023-05-29T02:20:16;13.1;75.0
77803;DHT22;66993;48.256;16.422;2023-05-29T02:25:16;13.0;75.0
77803;DHT22;66993;48.256;16.422;2023-05-29T02:30:16;12.9;75.0
77803;DHT22;66993;48.256;16.422;2023-05-29T02:35:16;12.8;75.0
77803;DHT22;66993;48.256;16.422;2023-05-29T02:40:16;12.8;75.0
77803;DHT22;66993;48.256;16.422;2023-05-29T02:45:16;12.9;75.0
77803;DHT22;66993;48.256;16.422;2023-05-29T02:50:16;12.7;76.0
77803;DHT22;66993;48.256;16.422;2023-05-29T02:55:16;12.4;76.0
77803;DHT22;66993;48.256;16.422;2023-05-29T03:00:16;12.4;76.0
77803;DHT22;66993;48.256;16.422;2023-05-29T03:05:16;12.3;76.0
77803;DHT22;66993;48.256;16.422;2023-05-29T03:10:16;12.4;76.0
77803;DHT22;66993;48.256;16.422;2023-05-29T03:15:16;12.4;76.0
77803;DHT22;66993;48.256;16.422;2023-05-29T03:20:16;12.5;76.0
77803;DHT22;66993;48.256;16.422;2023-05-29T03:25:16;12.4;76.0
77803;DHT22;66993;48.256;16.422;2023-05-29T03:30:16;12.6;76.0
77803;DHT22;66993;48.256;16.422;2023-05-29T03:35:16;12.5;76.0
77803;DHT22;66993;48.256;16.422;2023-05-29T03:40:16;12.5;76.0
77803;DHT22;66993;48.256;16.422;2023-05-29T03:45:16;12.5;76.0
77803;DHT22;66993;48.256;16.422;2023-05-29T03:50:16;12.4;76.0
77803;DHT22;66993;48.256;16.422;2023-05-29T03:55:16;12.5;76.0
77803;DHT22;66993;48.256;16.422;2023-05-29T04:00:16;12.5;76.0
77803;DHT22;66993;48.256;16.422;2023-05-29T04:05:16;12.6;76.0
77803;DHT22;66993;48.256;16.422;2023-05-29T04:10:16;12.6;76.0
77803;DHT22;66993;48.256;16.422;2023-05-29T04:15:16;12.7;76.0
77803;DHT22;66993;48.256;16.422;2023-05-29T04:20:16;12.7;76.0
77803;DHT22;66993;48.256;16.422;2023-05-29T04:25:16;12.8;76.0
77803;DHT22;66993;48.256;16.422;2023-05-29T04:30:16;12.8;76.0
77803;DHT22;66993;48.256;16.422;2023-05-29T04:35:16;13.0;75.0
77803;DHT22;66993;48.256;16.422;2023-05-29T04:40:16;13.1;75.0
77803;DHT22;66993;48.256;16.422;2023-05-29T04:45:19;13.3;75.0
77803;DHT22;66993;48.256;16.422;2023-05-29T04:50:16;13.4;75.0
77803;DHT22;66993;48.256;16.422;2023-05-29T04:55:16;13.5;74.0
77803;DHT22;66993;48.256;16.422;2023-05-29T05:00:16;13.7;74.0
77803;DHT22;66993;48.256;16.422;2023-05-29T05:05:16;13.9;74.0
77803;DHT22;66993;48.256;16.422;2023-05-29T05:10:16;14.0;73.0
77803;DHT22;66993;48.256;16.422;2023-05-29T05:15:16;14.2;73.0
77803;DHT22;66993;48.256;16.422;2023-05-29T05:20:16;14.5;72.0
77803;DHT22;66993;48.256;16.422;2023-05-29T05:25:16;14.6;71.0
77803;DHT22;66993;48.256;16.422;2023-05-29T05:30:16;15.0;71.0
77803;DHT22;66993;48.256;16.422;2023-05-29T05:35:16;14.9;70.0
77803;DHT22;66993;48.256;16.422;2023-05-29T05:40:16;15.0;70.0
77803;DHT22;66993;48.256;16.422;2023-05-29T05:45:16;15.2;69.0
77803;DHT22;66993;48.256;16.422;2023-05-29T05:50:16;15.8;69.0
77803;DHT22;66993;48.256;16.422;2023-05-29T05:55:16;15.8;68.0
77803;DHT22;66993;48.256;16.422;2023-05-29T06:00:16;15.8;67.0
77803;DHT22;66993;48.256;16.422;2023-05-29T06:05:16;16.0;66.0
77803;DHT22;66993;48.256;16.422;2023-05-29T06:10:16;16.2;65.0
77803;DHT22;66993;48.256;16.422;2023-05-29T06:15:16;16.6;64.0
77803;DHT22;66993;48.256;16.422;2023-05-29T06:20:16;16.3;63.0
77803;DHT22;66993;48.256;16.422;2023-05-29T06:25:17;16.5;62.0
77803;DHT22;66993;48.256;16.422;2023-05-29T06:30:16;16.6;62.0
77803;DHT22;66993;48.256;16.422;2023-05-29T06:35:16;16.4;61.0
77803;DHT22;66993;48.256;16.422;2023-05-29T06:40:16;16.5;61.0
77803;DHT22;66993;48.256;16.422;2023-05-29T06:45:16;16.6;61.0
77803;DHT22;66993;48.256;16.422;2023-05-29T06:50:16;16.8;61.0
77803;DHT22;66993;48.256;16.422;2023-05-29T06:55:16;16.7;61.0
77803;DHT22;66993;48.256;16.422;2023-05-29T07:00:16;17.2;58.0
77803;DHT22;66993;48.256;16.422;2023-05-29T07:05:16;17.3;57.0
77803;DHT22;66993;48.256;16.422;2023-05-29T07:10:16;17.3;57.0
77803;DHT22;66993;48.256;16.422;2023-05-29T07:15:16;17.2;56.0
77803;DHT22;66993;48.256;16.422;2023-05-29T07:20:16;17.7;56.0
77803;DHT22;66993;48.256;16.422;2023-05-29T07:25:16;17.9;56.0
77803;DHT22;66993;48.256;16.422;2023-05-29T07:30:16;17.6;56.0
77803;DHT22;66993;48.256;16.422;2023-05-29T07:35:16;17.5;54.0
77803;DHT22;66993;48.256;16.422;2023-05-29T07:40:16;18.0;54.0
77803;DHT22;66993;48.256;16.422;2023-05-29T07:45:16;18.2;53.0
77803;DHT22;66993;48.256;16.422;2023-05-29T07:50:16;18.0;53.0
77803;DHT22;66993;48.256;16.422;2023-05-29T07:55:16;18.1;52.0
77803;DHT22;66993;48.256;16.422;2023-05-29T08:00:16;18.3;53.0
77803;DHT22;66993;48.256;16.422;2023-05-29T08:05:16;18.3;53.0
77803;DHT22;66993;48.256;16.422;2023-05-29T08:10:16;18.2;51.0
77803;DHT22;66993;48.256;16.422;2023-05-29T08:15:16;18.1;51.0
77803;DHT22;66993;48.256;16.422;2023-05-29T08:20:16;18.6;50.0
77803;DHT22;66993;48.256;16.422;2023-05-29T08:25:16;18.9;50.0
77803;DHT22;66993;48.256;16.422;2023-05-29T08:30:16;19.4;51.0
77803;DHT22;66993;48.256;16.422;2023-05-29T08:35:16;19.2;51.0
77803;DHT22;66993;48.256;16.422;2023-05-29T08:40:16;19.3;50.0
77803;DHT22;66993;48.256;16.422;2023-05-29T08:45:16;19.1;50.0
77803;DHT22;66993;48.256;16.422;2023-05-29T08:50:16;19.4;50.0
77803;DHT22;66993;48.256;16.422;2023-05-29T08:55:16;19.8;51.0
77803;DHT22;66993;48.256;16.422;2023-05-29T09:00:16;19.9;49.0
77803;DHT22;66993;48.256;16.422;2023-05-29T09:05:16;20.3;49.0
77803;DHT22;66993;48.256;16.422;2023-05-29T09:10:16;20.8;48.0
77803;DHT22;66993;48.256;16.422;2023-05-29T09:15:17;20.6;48.0
77803;DHT22;66993;48.256;16.422;2023-05-29T09:20:16;20.6;48.0
77803;DHT22;66993;48.256;16.422;2023-05-29T09:25:16;21.1;47.0
77803;DHT22;66993;48.256;16.422;2023-05-29T09:30:30;21.3;47.0
77803;DHT22;66993;48.256;16.422;2023-05-29T09:35:18;22.3;45.0
77803;DHT22;66993;48.256;16.422;2023-05-29T09:40:16;21.8;45.0
77803;DHT22;66993;48.256;16.422;2023-05-29T09:45:16;22.8;43.0
77803;DHT22;66993;48.256;16.422;2023-05-29T09:50:19;22.8;42.0
77803;DHT22;66993;48.256;16.422;2023-05-29T09:55:16;22.9;41.0
77803;DHT22;66993;48.256;16.422;2023-05-29T10:00:17;22.9;38.0
77803;DHT22;66993;48.256;16.422;2023-05-29T10:05:16;23.5;36.0
77803;DHT22;66993;48.256;16.422;2023-05-29T10:10:16;23.0;33.0
77803;DHT22;66993;48.256;16.422;2023-05-29T10:15:16;23.4;34.0
77803;DHT22;66993;48.256;16.422;2023-05-29T10:20:16;24.0;33.0
77803;DHT22;66993;48.256;16.422;2023-05-29T10:25:17;23.5;30.0
77803;DHT22;66993;48.256;16.422;2023-05-29T10:30:21;24.2;30.0
77803;DHT22;66993;48.256;16.422;2023-05-29T10:35:17;24.7;30.0
77803;DHT22;66993;48.256;16.422;2023-05-29T10:40:16;24.7;30.0
77803;DHT22;66993;48.256;16.422;2023-05-29T10:45:47;24.2;30.0
77803;DHT22;66993;48.256;16.422;2023-05-29T10:50:18;24.2;29.0
77803;DHT22;66993;48.256;16.422;2023-05-29T10:55:16;25.2;29.0
77803;DHT22;66993;48.256;16.422;2023-05-29T11:00:16;24.2;29.0
77803;DHT22;66993;48.256;16.422;2023-05-29T11:05:18;23.7;28.0
77803;DHT22;66993;48.256;16.422;2023-05-29T11:10:16;24.2;27.0
77803;DHT22;66993;48.256;16.422;2023-05-29T11:15:16;24.0;28.0
77803;DHT22;66993;48.256;16.422;2023-05-29T11:20:17;24.5;31.0
77803;DHT22;66993;48.256;16.422;2023-05-29T11:25:16;24.5;30.0
77803;DHT22;66993;48.256;16.422;2023-05-29T11:30:16;25.5;33.0
77803;DHT22;66993;48.256;16.422;2023-05-29T11:35:16;25.0;34.0
77803;DHT22;66993;48.256;16.422;2023-05-29T11:40:16;24.5;33.0
77803;DHT22;66993;48.256;16.422;2023-05-29T11:45:16;24.5;34.0
77803;DHT22;66993;48.256;16.422;2023-05-29T11:50:18;25.5;34.0
77803;DHT22;66993;48.256;16.422;2023-05-29T11:55:17;25.0;34.0
77803;DHT22;66993;48.256;16.422;2023-05-29T12:00:16;25.5;34.0
77803;DHT22;66993;48.256;16.422;2023-05-29T12:05:16;25.3;36.0
77803;DHT22;66993;48.256;16.422;2023-05-29T12:10:16;25.3;34.0
77803;DHT22;66993;48.256;16.422;2023-05-29T12:15:16;25.8;34.0
77803;DHT22;66993;48.256;16.422;2023-05-29T12:20:16;25.8;33.0
77803;DHT22;66993;48.256;16.422;2023-05-29T12:25:16;25.3;33.0
77803;DHT22;66993;48.256;16.422;2023-05-29T12:30:19;25.8;33.0
77803;DHT22;66993;48.256;16.422;2023-05-29T12:35:17;25.8;33.0
77803;DHT22;66993;48.256;16.422;2023-05-29T12:40:17;25.8;32.0
77803;DHT22;66993;48.256;16.422;2023-05-29T12:45:17;27.0;33.0
77803;DHT22;66993;48.256;16.422;2023-05-29T12:50:20;26.0;32.0
77803;DHT22;66993;48.256;16.422;2023-05-29T12:55:16;26.0;31.0
77803;DHT22;66993;48.256;16.422;2023-05-29T13:00:16;28.0;33.0
77803;DHT22;66993;48.256;16.422;2023-05-29T13:05:16;27.0;34.0
77803;DHT22;66993;48.256;16.422;2023-05-29T13:10:16;27.0;31.0
77803;DHT22;66993;48.256;16.422;2023-05-29T13:15:16;26.5;33.0
77803;DHT22;66993;48.256;16.422;2023-05-29T13:20:16;26.0;31.0
77803;DHT22;66993;48.256;16.422;2023-05-29T13:25:16;27.0;30.0
77803;DHT22;66993;48.256;16.422;2023-05-29T13:30:16;27.5;30.0
77803;DHT22;66993;48.256;16.422;2023-05-29T13:35:16;27.5;30.0
77803;DHT22;66993;48.256;16.422;2023-05-29T13:40:16;27.5;28.0
77803;DHT22;66993;48.256;16.422;2023-05-29T13:45:16;27.0;30.0
77803;DHT22;66993;48.256;16.422;2023-05-29T13:50:16;27.0;29.0
77803;DHT22;66993;48.256;16.422;2023-05-29T13:55:16;26.5;27.0
77803;DHT22;66993;48.256;16.422;2023-05-29T14:00:16;26.7;28.0
77803;DHT22;66993;48.256;16.422;2023-05-29T14:05:16;27.2;27.0
77803;DHT22;66993;48.256;16.422;2023-05-29T14:10:16;26.2;28.0
77803;DHT22;66993;48.256;16.422;2023-05-29T14:15:16;26.2;29.0
77803;DHT22;66993;48.256;16.422;2023-05-29T14:20:16;25.7;28.0
77803;DHT22;66993;48.256;16.422;2023-05-29T14:25:16;26.2;27.0
77803;DHT22;66993;48.256;16.422;2023-05-29T14:30:16;26.1;28.0
77803;DHT22;66993;48.256;16.422;2023-05-29T14:35:16;26.6;29.0
77803;DHT22;66993;48.256;16.422;2023-05-29T14:40:16;26.1;29.0
77803;DHT22;66993;48.256;16.422;2023-05-29T14:45:16;26.1;29.0
77803;DHT22;66993;48.256;16.422;2023-05-29T14:50:16;26.6;29.0
77803;DHT22;66993;48.256;16.422;2023-05-29T14:55:16;26.1;28.0
77803;DHT22;66993;48.256;16.422;2023-05-29T15:00:16;26.1;28.0
77803;DHT22;66993;48.256;16.422;2023-05-29T15:05:16;25.8;28.0
77803;DHT22;66993;48.256;16.422;2023-05-29T15:10:16;26.3;28.0
77803;DHT22;66993;48.256;16.422;2023-05-29T15:15:16;26.4;29.0
77803;DHT22;66993;48.256;16.422;2023-05-29T15:20:16;26.4;29.0
77803;DHT22;66993;48.256;16.422;2023-05-29T15:25:16;26.9;28.0
77803;DHT22;66993;48.256;16.422;2023-05-29T15:30:17;26.4;28.0
77803;DHT22;66993;48.256;16.422;2023-05-29T15:35:16;25.9;29.0
77803;DHT22;66993;48.256;16.422;2023-05-29T15:40:16;26.9;29.0
77803;DHT22;66993;48.256;16.422;2023-05-29T15:45:16;25.4;28.0
77803;DHT22;66993;48.256;16.422;2023-05-29T15:50:16;26.4;29.0
77803;DHT22;66993;48.256;16.422;2023-05-29T15:55:16;26.1;29.0
77803;DHT22;66993;48.256;16.422;2023-05-29T16:00:16;26.1;30.0
77803;DHT22;66993;48.256;16.422;2023-05-29T16:05:16;26.1;29.0
77803;DHT22;66993;48.256;16.422;2023-05-29T16:10:16;26.1;30.0
77803;DHT22;66993;48.256;16.422;2023-05-29T16:15:16;25.6;29.0
77803;DHT22;66993;48.256;16.422;2023-05-29T16:20:16;25.4;29.0
77803;DHT22;66993;48.256;16.422;2023-05-29T16:25:16;25.7;29.0
77803;DHT22;66993;48.256;16.422;2023-05-29T16:30:16;25.7;29.0
77803;DHT22;66993;48.256;16.422;2023-05-29T16:35:16;25.7;29.0
77803;DHT22;66993;48.256;16.422;2023-05-29T16:40:16;25.7;31.0
77803;DHT22;66993;48.256;16.422;2023-05-29T16:45:16;26.6;31.0
77803;DHT22;66993;48.256;16.422;2023-05-29T16:50:16;25.1;31.0
77803;DHT22;66993;48.256;16.422;2023-05-29T16:55:16;25.3;32.0
77803;DHT22;66993;48.256;16.422;2023-05-29T17:00:16;24.8;33.0
77803;DHT22;66993;48.256;16.422;2023-05-29T17:05:16;24.8;33.0
77803;DHT22;66993;48.256;16.422;2023-05-29T17:10:16;24.8;34.0
77803;DHT22;66993;48.256;16.422;2023-05-29T17:15:16;25.0;34.0
77803;DHT22;66993;48.256;16.422;2023-05-29T17:20:16;24.9;35.0
77803;DHT22;66993;48.256;16.422;2023-05-29T17:25:16;24.7;35.0
77803;DHT22;66993;48.256;16.422;2023-05-29T17:30:16;24.2;36.0
77803;DHT22;66993;48.256;16.422;2023-05-29T17:35:16;24.1;37.0
77803;DHT22;66993;48.256;16.422;2023-05-29T17:40:16;24.2;37.0
77803;DHT22;66993;48.256;16.422;2023-05-29T17:45:16;24.0;38.0
77803;DHT22;66993;48.256;16.422;2023-05-29T17:50:16;23.8;38.0
77803;DHT22;66993;48.256;16.422;2023-05-29T17:55:16;23.5;39.0
77803;DHT22;66993;48.256;16.422;2023-05-29T18:00:16;23.3;39.0
77803;DHT22;66993;48.256;16.422;2023-05-29T18:05:16;23.5;40.0
77803;DHT22;66993;48.256;16.422;2023-05-29T18:10:16;23.2;40.0
77803;DHT22;66993;48.256;16.422;2023-05-29T18:15:16;23.1;41.0
77803;DHT22;66993;48.256;16.422;2023-05-29T18:20:16;22.7;41.0
77803;DHT22;66993;48.256;16.422;2023-05-29T18:25:16;22.4;43.0
77803;DHT22;66993;48.256;16.422;2023-05-29T18:30:16;22.3;45.0
77803;DHT22;66993;48.256;16.422;2023-05-29T18:35:16;21.8;46.0
77803;DHT22;66993;48.256;16.422;2023-05-29T18:40:16;21.6;48.0
77803;DHT22;66993;48.256;16.422;2023-05-29T18:45:16;21.2;51.0
77803;DHT22;66993;48.256;16.422;2023-05-29T18:50:16;21.0;53.0
77803;DHT22;66993;48.256;16.422;2023-05-29T18:55:17;20.6;55.0
77803;DHT22;66993;48.256;16.422;2023-05-29T19:00:16;19.8;57.0
77803;DHT22;66993;48.256;16.422;2023-05-29T19:05:16;19.6;58.0
77803;DHT22;66993;48.256;16.422;2023-05-29T19:10:16;19.4;60.0
77803;DHT22;66993;48.256;16.422;2023-05-29T19:15:16;19.2;62.0
77803;DHT22;66993;48.256;16.422;2023-05-29T19:20:16;18.8;63.0
77803;DHT22;66993;48.256;16.422;2023-05-29T19:25:16;19.3;64.0
77803;DHT22;66993;48.256;16.422;2023-05-29T19:30:16;19.6;64.0
77803;DHT22;66993;48.256;16.422;2023-05-29T19:35:16;19.4;65.0
77803;DHT22;66993;48.256;16.422;2023-05-29T19:40:16;18.4;66.0
77803;DHT22;66993;48.256;16.422;2023-05-29T19:45:16;18.5;67.0
77803;DHT22;66993;48.256;16.422;2023-05-29T19:50:16;18.0;67.0
77803;DHT22;66993;48.256;16.422;2023-05-29T19:55:16;18.2;69.0
77803;DHT22;66993;48.256;16.422;2023-05-29T20:00:16;17.7;70.0
77803;DHT22;66993;48.256;16.422;2023-05-29T20:05:16;17.5;70.0
77803;DHT22;66993;48.256;16.422;2023-05-29T20:10:16;17.5;71.0
77803;DHT22;66993;48.256;16.422;2023-05-29T20:15:16;17.1;71.0
77803;DHT22;66993;48.256;16.422;2023-05-29T20:20:16;17.0;71.0
77803;DHT22;66993;48.256;16.422;2023-05-29T20:25:16;16.7;72.0
77803;DHT22;66993;48.256;16.422;2023-05-29T20:30:16;17.0;72.0
77803;DHT22;66993;48.256;16.422;2023-05-29T20:35:16;17.0;72.0
77803;DHT22;66993;48.256;16.422;2023-05-29T20:40:16;16.5;73.0
77803;DHT22;66993;48.256;16.422;2023-05-29T20:45:16;16.3;73.0
77803;DHT22;66993;48.256;16.422;2023-05-29T20:50:16;16.0;73.0
77803;DHT22;66993;48.256;16.422;2023-05-29T20:55:16;15.9;73.0
77803;DHT22;66993;48.256;16.422;2023-05-29T21:00:16;15.6;73.0
77803;DHT22;66993;48.256;16.422;2023-05-29T21:05:16;15.6;74.0
77803;DHT22;66993;48.256;16.422;2023-05-29T21:10:16;15.5;74.0
77803;DHT22;66993;48.256;16.422;2023-05-29T21:15:16;15.9;74.0
77803;DHT22;66993;48.256;16.422;2023-05-29T21:20:16;16.4;74.0
77803;DHT22;66993;48.256;16.422;2023-05-29T21:25:16;16.9;74.0
77803;DHT22;66993;48.256;16.422;2023-05-29T21:30:16;17.1;74.0
77803;DHT22;66993;48.256;16.422;2023-05-29T21:35:16;17.1;74.0
77803;DHT22;66993;48.256;16.422;2023-05-29T21:40:16;17.1;73.0
77803;DHT22;66993;48.256;16.422;2023-05-29T21:45:16;17.0;73.0
77803;DHT22;66993;48.256;16.422;2023-05-29T21:50:16;16.9;72.0
77803;DHT22;66993;48.256;16.422;2023-05-29T21:55:16;16.9;72.0
77803;DHT22;66993;48.256;16.422;2023-05-29T22:00:16;16.7;72.0
77803;DHT22;66993;48.256;16.422;2023-05-29T22:05:16;16.7;72.0
77803;DHT22;66993;48.256;16.422;2023-05-29T22:10:16;16.4;72.0
77803;DHT22;66993;48.256;16.422;2023-05-29T22:15:17;16.4;72.0
77803;DHT22;66993;48.256;16.422;2023-05-29T22:20:16;16.2;72.0
77803;DHT22;66993;48.256;16.422;2023-05-29T22:25:16;16.2;72.0
77803;DHT22;66993;48.256;16.422;2023-05-29T22:30:16;16.3;72.0
77803;DHT22;66993;48.256;16.422;2023-05-29T22:35:16;16.2;72.0
77803;DHT22;66993;48.256;16.422;2023-05-29T22:40:16;16.2;72.0
77803;DHT22;66993;48.256;16.422;2023-05-29T22:45:16;16.0;72.0
77803;DHT22;66993;48.256;16.422;2023-05-29T22:50:16;16.1;72.0
77803;DHT22;66993;48.256;16.422;2023-05-29T22:55:16;16.2;72.0
77803;DHT22;66993;48.256;16.422;2023-05-29T23:00:16;16.3;72.0
77803;DHT22;66993;48.256;16.422;2023-05-29T23:05:16;16.1;71.0
77803;DHT22;66993;48.256;16.422;2023-05-29T23:10:16;16.1;71.0
77803;DHT22;66993;48.256;16.422;2023-05-29T23:15:16;16.2;71.0
77803;DHT22;66993;48.256;16.422;2023-05-29T23:20:16;16.3;71.0
77803;DHT22;66993;48.256;16.422;2023-05-29T23:25:16;16.1;71.0
77803;DHT22;66993;48.256;16.422;2023-05-29T23:30:16;16.3;70.0
77803;DHT22;66993;48.256;16.422;2023-05-29T23:35:16;16.4;70.0
77803;DHT22;66993;48.256;16.422;2023-05-29T23:40:16;16.2;69.0
77803;DHT22;66993;48.256;16.422;2023-05-29T23:45:16;16.2;69.0
77803;DHT22;66993;48.256;16.422;2023-05-29T23:50:16;16.3;68.0
77803;DHT22;66993;48.256;16.422;2023-05-29T23:55:16;16.3;67.0
